Time;durP1;ratioP1;P1;durP2;ratioP2;P2;SDS_P1;SDS_P2;PMS_P1;PMS_P2;Temp;Humidity;BMP_temperature;BMP_pressure;BME280_temperature;BME280_humidity;BME280_pressure;Samples;Min_cycle;Max_cycle;Signal;HPM_P1;HPM_P2
2022/09/07 00:01:36;;;;;;;;;;;20.40;67.20;;;16.38;100.00;95553.25;4997890;28;19927;-49
2022/09/07 00:04:02;;;;;;;;;;;20.40;67.20;;;16.36;100.00;95553.56;5002234;28;19912;-49
2022/09/07 00:06:29;;;;;;;;;;;20.30;67.20;;;16.33;100.00;95548.00;5032063;28;20307;-49
2022/09/07 00:09:07;;;;;;;;;;;20.30;67.20;;;16.28;100.00;95556.94;5026547;28;19915;-49
2022/09/07 00:11:33;;;;;;;;;;;20.30;67.20;;;16.21;100.00;95553.09;5025422;28;19908;-47
2022/09/07 00:13:59;;;;;;;;;;;20.30;67.20;;;16.17;100.00;95553.69;5034429;28;20429;-49
2022/09/07 00:16:30;;;;;;;;;;;20.20;67.10;;;16.11;100.00;95564.84;5013970;28;19963;-49
2022/09/07 00:19:01;;;;;;;;;;;20.20;67.20;;;16.07;100.00;95558.47;5014354;28;20027;-49
2022/09/07 00:21:36;;;;;;;;;;;20.10;67.20;;;16.02;100.00;95564.75;5020519;28;20004;-49
2022/09/07 00:24:03;;;;;;;;;;;20.10;67.30;;;15.98;100.00;95557.56;5031971;28;19920;-49
2022/09/07 00:26:30;;;;;;;;;;;20.10;67.30;;;15.95;100.00;95556.25;5041039;28;20321;-51
2022/09/07 00:29:02;;;;;;;;;;;20.00;67.30;;;15.91;100.00;95541.84;5034421;28;19913;-56
2022/09/07 00:31:30;;;;;;;;;;;20.00;67.40;;;15.89;100.00;95550.22;5019306;28;20295;-55
2022/09/07 00:34:02;;;;;;;;;;;20.00;67.50;;;15.90;100.00;95551.00;5030670;28;19915;-54
2022/09/07 00:36:29;;;;;;;;;;;20.00;67.60;;;15.89;100.00;95550.22;5030463;28;19909;-56
2022/09/07 00:38:55;;;;;;;;;;;20.00;67.60;;;15.91;100.00;95556.06;5018847;28;20160;-54
2022/09/07 00:41:30;;;;;;;;;;;20.00;67.60;;;15.91;100.00;95566.81;5047274;28;19915;-49
2022/09/07 00:44:35;;;;;;;;;;;20.00;67.70;;;15.91;100.00;95566.81;5028382;28;19916;-53
2022/09/07 00:47:01;;;;;;;;;;;20.00;67.80;;;15.88;100.00;95556.66;5033427;28;19912;-54
2022/09/07 00:49:31;;;;;;;;;;;20.00;67.80;;;15.91;100.00;95574.06;5017414;28;19915;-56
2022/09/07 00:52:12;;;;;;;;;;;20.00;67.90;;;15.93;100.00;95591.50;5004508;28;19908;-55
2022/09/07 00:54:47;;;;;;;;;;;20.00;68.20;;;16.01;100.00;95579.25;4998139;28;19955;-56
2022/09/07 00:57:16;;;;;;;;;;;20.00;68.50;;;16.05;100.00;95553.41;5030013;28;19908;-55
2022/09/07 00:59:53;;;;;;;;;;;20.10;68.60;;;16.08;100.00;95539.38;5051599;28;20309;-52
2022/09/07 01:02:19;;;;;;;;;;;20.10;68.40;;;16.04;100.00;95529.50;5006893;28;19961;-52
2022/09/07 01:04:52;;;;;;;;;;;20.10;68.40;;;16.07;100.00;95537.75;5031061;28;20370;-52
2022/09/07 01:07:18;;;;;;;;;;;20.10;68.40;;;16.13;100.00;95544.63;5030725;28;19919;-50
2022/09/07 01:09:49;;;;;;;;;;;20.00;68.40;;;16.17;100.00;95544.84;5031534;28;19916;-50
2022/09/07 01:12:15;;;;;;;;;;;20.10;68.50;;;16.17;100.00;95556.38;5031155;28;19949;-49
2022/09/07 01:14:50;;;;;;;;;;;20.10;68.50;;;16.18;100.00;95552.59;5049125;28;19993;-51
2022/09/07 01:18:01;;;;;;;;;;;20.00;68.40;;;16.14;100.00;95554.28;5016686;28;19951;-51
2022/09/07 01:20:49;;;;;;;;;;;20.00;68.40;;;16.14;100.00;95559.66;4994844;28;19909;-53
2022/09/07 01:24:11;;;;;;;;;;;20.00;68.40;;;16.10;100.00;95560.53;5015781;28;19917;-48
2022/09/07 01:27:25;;;;;;;;;;;20.00;68.40;;;16.04;100.00;95551.78;4949475;28;20345;-55
2022/09/07 01:29:59;;;;;;;;;;;19.90;68.20;;;15.94;100.00;95552.78;4914054;28;20001;-50
2022/09/07 01:32:42;;;;;;;;;;;19.90;68.20;;;15.88;100.00;95537.06;5003664;28;19909;-50
2022/09/07 01:35:44;;;;;;;;;;;19.90;68.30;;;15.82;100.00;95536.38;5010663;28;19978;-48
2022/09/07 01:38:51;;;;;;;;;;;19.80;68.30;;;15.78;100.00;95551.50;5025297;28;19925;-48
2022/09/07 01:41:42;;;;;;;;;;;19.80;68.30;;;15.78;100.00;95542.66;5026190;28;19960;-54
2022/09/07 01:44:36;;;;;;;;;;;19.70;68.30;;;15.73;100.00;95551.59;5010166;28;19916;-49
2022/09/07 01:47:21;;;;;;;;;;;19.70;68.30;;;15.71;100.00;95545.72;5029390;28;20019;-53
2022/09/07 01:49:52;;;;;;;;;;;19.70;68.40;;;15.67;100.00;95555.50;5009784;28;19909;-52
2022/09/07 01:52:56;;;;;;;;;;;19.70;68.30;;;15.60;100.00;95555.03;5009857;28;20462;-48
2022/09/07 01:55:52;;;;;;;;;;;19.60;68.30;;;15.56;100.00;95556.72;5026714;28;20448;-50
2022/09/07 01:58:45;;;;;;;;;;;19.50;68.30;;;15.49;100.00;95552.53;5044996;28;20278;-50
2022/09/07 02:01:22;;;;;;;;;;;19.50;68.40;;;15.46;100.00;95561.19;5045821;28;19917;-48
2022/09/07 02:04:52;;;;;;;;;;;19.50;68.40;;;15.41;100.00;95557.78;5010426;28;19913;-53
2022/09/07 02:07:46;;;;;;;;;;;19.50;68.40;;;15.34;100.00;95558.19;4995669;28;20004;-50
2022/09/07 02:10:32;;;;;;;;;;;19.40;68.40;;;15.27;100.00;95561.25;5030586;28;20198;-54
2022/09/07 02:13:30;;;;;;;;;;;19.30;68.30;;;15.26;100.00;95566.88;5019146;28;19956;-47
2022/09/07 02:16:15;;;;;;;;;;;19.30;68.40;;;15.27;100.00;95566.59;5018106;28;19909;-51
2022/09/07 02:18:57;;;;;;;;;;;19.30;68.50;;;15.24;100.00;95563.72;5050278;28;20378;-48
2022/09/07 02:21:44;;;;;;;;;;;19.20;68.50;;;15.22;100.00;95565.88;5025070;28;20290;-47
2022/09/07 02:24:58;;;;;;;;;;;19.20;68.60;;;15.17;100.00;95569.47;5048957;28;19916;-50
2022/09/07 02:27:55;;;;;;;;;;;19.20;68.60;;;15.16;100.00;95570.53;4999893;28;19916;-53
2022/09/07 02:30:21;;;;;;;;;;;19.20;68.70;;;15.16;100.00;95569.75;5067782;28;19908;-53
2022/09/07 02:32:48;;;;;;;;;;;19.10;68.60;;;15.15;100.00;95570.84;5022786;28;19909;-54
2022/09/07 02:35:19;;;;;;;;;;;19.10;68.70;;;15.11;100.00;95569.84;5016461;28;19916;-53
2022/09/07 02:37:49;;;;;;;;;;;19.10;68.70;;;15.08;100.00;95583.84;5025301;28;19916;-47
2022/09/07 02:40:15;;;;;;;;;;;19.10;68.70;;;15.07;100.00;95580.34;5036803;28;20419;-47
2022/09/07 02:42:47;;;;;;;;;;;19.10;68.80;;;15.04;100.00;95584.44;5052472;28;19912;-48
2022/09/07 02:45:20;;;;;;;;;;;19.10;68.80;;;15.04;100.00;95575.56;5018518;28;19913;-48
2022/09/07 02:48:35;;;;;;;;;;;19.10;68.90;;;15.02;100.00;95581.22;5030055;28;20293;-49
2022/09/07 02:51:37;;;;;;;;;;;19.10;68.90;;;15.02;100.00;95585.81;5033076;28;20401;-49
2022/09/07 02:55:09;;;;;;;;;;;19.10;68.90;;;15.04;100.00;95576.38;5020223;28;20382;-51
2022/09/07 04:05:10;;;;;;;;;;;19.30;69.90;;;15.45;100.00;95599.88;5047739;28;20093;-49
2022/09/07 04:07:47;;;;;;;;;;;19.40;69.90;;;15.49;100.00;95606.22;5028704;28;19925;-47
2022/09/07 04:10:21;;;;;;;;;;;19.50;70.00;;;15.56;100.00;95613.09;5008612;28;19931;-50
2022/09/07 04:12:47;;;;;;;;;;;19.50;69.90;;;15.59;100.00;95612.50;5032225;28;20375;-48
2022/09/07 04:15:15;;;;;;;;;;;19.60;69.80;;;15.60;100.00;95612.19;5026713;28;19909;-49
2022/09/07 04:17:44;;;;;;;;;;;19.60;69.70;;;15.64;100.00;95609.75;5031162;28;20291;-50
2022/09/07 04:20:16;;;;;;;;;;;19.70;69.80;;;15.69;100.00;95615.03;5023712;28;19944;-49
2022/09/07 04:22:47;;;;;;;;;;;19.80;69.70;;;15.70;100.00;95604.03;5029136;28;19921;-48
2022/09/07 04:25:13;;;;;;;;;;;19.80;69.60;;;15.72;100.00;95609.06;5013986;28;20390;-49
2022/09/07 04:27:45;;;;;;;;;;;19.80;69.50;;;15.73;100.00;95607.97;5013394;28;19925;-48
2022/09/07 04:30:12;;;;;;;;;;;19.90;69.50;;;15.75;100.00;95605.81;5029296;28;19953;-48
2022/09/07 04:32:38;;;;;;;;;;;19.90;69.40;;;15.77;100.00;95609.00;5030821;28;19913;-48
2022/09/07 04:35:07;;;;;;;;;;;19.90;69.50;;;15.81;100.00;95604.63;5013769;28;19909;-49
2022/09/07 04:37:32;;;;;;;;;;;19.90;69.40;;;15.82;100.00;95587.41;5011450;28;19909;-48
2022/09/07 04:40:04;;;;;;;;;;;19.90;69.40;;;15.86;100.00;95593.78;5029423;28;19915;-53
2022/09/07 04:42:39;;;;;;;;;;;20.00;69.50;;;15.90;100.00;95592.09;5013987;28;19966;-48
2022/09/07 04:45:06;;;;;;;;;;;20.00;69.50;;;15.90;100.00;95596.66;5031977;28;20367;-49
2022/09/07 04:47:31;;;;;;;;;;;20.00;69.50;;;15.91;100.00;95599.03;5008219;28;19909;-49
2022/09/07 04:50:09;;;;;;;;;;;20.10;69.60;;;15.94;100.00;95603.03;5021048;28;19909;-48
2022/09/07 04:52:44;;;;;;;;;;;20.10;69.50;;;16.00;100.00;95601.84;5000398;28;19920;-49
2022/09/07 04:55:16;;;;;;;;;;;20.10;69.50;;;16.02;100.00;95609.63;4996527;28;19913;-50
2022/09/07 04:57:49;;;;;;;;;;;20.10;69.40;;;16.00;100.00;95609.91;5011439;28;19948;-50
2022/09/07 05:00:16;;;;;;;;;;;20.10;69.30;;;15.99;100.00;95608.31;5031594;28;20286;-51
2022/09/07 05:02:42;;;;;;;;;;;20.20;69.30;;;15.97;100.00;95607.81;5006843;28;20317;-48
2022/09/07 05:05:08;;;;;;;;;;;20.10;69.20;;;15.96;100.00;95615.06;5015342;28;20459;-48
2022/09/07 05:07:37;;;;;;;;;;;20.10;69.20;;;15.95;100.00;95612.69;5030175;28;20433;-48
2022/09/07 05:10:18;;;;;;;;;;;20.10;69.20;;;15.90;100.00;95608.22;5030900;28;20375;-49
2022/09/07 05:12:46;;;;;;;;;;;20.10;69.10;;;15.87;100.00;95613.38;5021206;28;19909;-48
2022/09/07 05:15:15;;;;;;;;;;;20.10;69.10;;;15.82;100.00;95603.50;5049913;28;19908;-48
2022/09/07 05:17:41;;;;;;;;;;;20.00;69.00;;;15.80;100.00;95615.66;5040376;28;20055;-48
2022/09/07 05:20:12;;;;;;;;;;;20.00;69.00;;;15.78;100.00;95621.31;5036108;28;19995;-48
2022/09/07 05:22:39;;;;;;;;;;;20.00;69.00;;;15.75;100.00;95624.59;5034917;23;19924;-44
2022/09/07 05:25:10;;;;;;;;;;;20.00;69.00;;;15.70;100.00;95622.03;5010985;28;19940;-43
2022/09/07 05:27:35;;;;;;;;;;;19.90;69.00;;;15.67;100.00;95630.66;5009173;28;20011;-43
2022/09/07 05:30:01;;;;;;;;;;;19.90;68.90;;;15.66;100.00;95623.66;5011499;28;20047;-43
2022/09/07 05:32:30;;;;;;;;;;;19.90;69.00;;;15.62;100.00;95631.50;5009810;28;20371;-42
2022/09/07 05:34:56;;;;;;;;;;;19.80;68.90;;;15.60;100.00;95635.56;5009941;28;20028;-44
2022/09/07 05:37:21;;;;;;;;;;;19.80;68.90;;;15.61;100.00;95639.88;5009613;28;20011;-50
2022/09/07 05:39:47;;;;;;;;;;;19.80;69.00;;;15.59;100.00;95634.78;4979972;28;19919;-44
2022/09/07 05:42:16;;;;;;;;;;;19.80;69.00;;;15.55;100.00;95644.53;4992893;28;19963;-45
2022/09/07 05:44:41;;;;;;;;;;;19.80;69.00;;;15.53;100.00;95632.47;4991084;28;19964;-44
2022/09/07 05:47:07;;;;;;;;;;;19.80;69.00;;;15.49;100.00;95635.75;4975214;28;19944;-45
2022/09/07 05:49:33;;;;;;;;;;;19.80;69.00;;;15.49;100.00;95634.97;5006588;28;19959;-42
2022/09/07 05:51:59;;;;;;;;;;;19.80;68.90;;;15.50;100.00;95641.91;4963463;28;19967;-42
2022/09/07 05:54:25;;;;;;;;;;;19.80;68.90;;;15.64;100.00;95639.28;5010197;28;20003;-43
2022/09/07 05:56:53;;;;;;;;;;;19.90;68.90;;;15.80;100.00;95631.78;5007175;28;20402;-42
2022/09/07 05:59:18;;;;;;;;;;;20.00;68.90;;;15.95;100.00;95634.16;4993858;28;19909;-42
2022/09/07 06:01:44;;;;;;;;;;;20.20;68.90;;;16.17;100.00;95631.63;5008572;28;20321;-44
2022/09/07 06:04:10;;;;;;;;;;;20.40;68.80;;;16.39;100.00;95624.75;5008981;28;19913;-43
2022/09/07 06:06:37;;;;;;;;;;;20.60;68.70;;;16.62;100.00;95614.84;5009161;28;19959;-46
2022/09/07 06:09:03;;;;;;;;;;;20.90;68.60;;;16.85;100.00;95611.13;4997827;28;19915;-49
2022/09/07 06:11:35;;;;;;;;;;;21.20;68.50;;;17.08;100.00;95605.78;5009641;28;19913;-44
2022/09/07 06:14:01;;;;;;;;;;;21.50;68.30;;;17.31;100.00;95606.56;4987203;28;19913;-44
2022/09/07 06:16:33;;;;;;;;;;;21.80;68.10;;;17.52;98.37;95610.34;5008707;28;19913;-45
2022/09/07 06:19:06;;;;;;;;;;;22.10;67.70;;;17.77;97.16;95614.34;4963952;28;19993;-44
2022/09/07 06:21:36;;;;;;;;;;;22.40;67.50;;;17.87;94.05;95615.16;5003992;28;19928;-52
2022/09/07 06:24:04;;;;;;;;;;;22.60;67.20;;;18.19;93.20;95628.28;5010618;28;19948;-46
2022/09/07 06:26:44;;;;;;;;;;;23.00;66.90;;;18.56;90.69;95631.59;4992261;28;19908;-46
2022/09/07 06:29:11;;;;;;;;;;;23.40;66.60;;;18.85;89.44;95633.72;4990825;28;19996;-44
2022/09/07 06:31:36;;;;;;;;;;;23.70;66.30;;;19.16;85.73;95635.50;5009325;28;20008;-48
2022/09/07 06:34:08;;;;;;;;;;;24.00;66.00;;;19.40;82.53;95643.13;4976840;28;19999;-44
2022/09/07 06:36:37;;;;;;;;;;;24.30;65.80;;;19.54;82.89;95638.31;4993104;28;19909;-46
2022/09/07 06:39:06;;;;;;;;;;;24.40;65.50;;;19.68;82.30;95648.19;5009417;28;19909;-46
2022/09/07 06:41:31;;;;;;;;;;;24.50;65.20;;;19.58;80.17;95644.66;4992438;28;19931;-44
2022/09/07 06:44:03;;;;;;;;;;;24.50;64.90;;;19.75;82.68;95651.19;5009592;28;20360;-44
2022/09/07 06:46:29;;;;;;;;;;;24.60;64.60;;;19.48;80.17;95653.09;4987269;28;19916;-46
2022/09/07 06:49:06;;;;;;;;;;;24.50;64.30;;;19.44;80.35;95640.56;5010506;28;19909;-44
2022/09/07 06:51:32;;;;;;;;;;;24.40;63.90;;;19.52;82.06;95650.56;5009003;28;19909;-44
2022/09/07 06:54:01;;;;;;;;;;;24.20;63.80;;;19.52;81.92;95647.84;5010474;28;19909;-46
2022/09/07 06:56:33;;;;;;;;;;;24.10;63.80;;;19.46;82.12;95647.25;4970857;28;20399;-43
2022/09/07 06:59:04;;;;;;;;;;;24.10;63.90;;;19.51;81.65;95644.38;4973504;28;19985;-44
2022/09/07 07:01:32;;;;;;;;;;;24.20;63.80;;;19.76;81.97;95639.28;4972860;28;19992;-43
2022/09/07 07:04:13;;;;;;;;;;;24.50;63.60;;;20.03;81.05;95636.19;4994344;28;19913;-46
2022/09/07 07:06:39;;;;;;;;;;;24.90;63.50;;;20.05;80.91;95638.53;4985029;28;19920;-52
2022/09/07 07:09:07;;;;;;;;;;;25.00;63.30;;;20.20;80.60;95629.13;4998380;28;20724;-44
2022/09/07 07:11:36;;;;;;;;;;;25.10;63.30;;;20.32;80.80;95640.03;4988374;28;19981;-44
2022/09/07 07:14:14;;;;;;;;;;;25.20;63.10;;;20.37;79.54;95636.34;4991768;28;19917;-44
2022/09/07 07:16:40;;;;;;;;;;;25.20;62.90;;;20.49;78.33;95633.75;5006337;28;19913;-44
2022/09/07 07:19:05;;;;;;;;;;;25.40;62.90;;;20.54;76.66;95641.72;5008207;28;20322;-45
2022/09/07 07:21:31;;;;;;;;;;;25.40;62.60;;;20.60;75.14;95640.41;5009906;28;19916;-44
2022/09/07 07:23:57;;;;;;;;;;;25.50;62.30;;;20.71;77.56;95652.41;5003930;28;19917;-44
2022/09/07 07:26:25;;;;;;;;;;;25.50;62.10;;;20.77;76.10;95653.03;4990926;28;20370;-44
2022/09/07 07:28:54;;;;;;;;;;;25.50;62.00;;;20.85;76.69;95654.91;5012351;28;20355;-44
2022/09/07 07:31:23;;;;;;;;;;;25.50;61.80;;;20.94;75.94;95652.16;4986396;28;20228;-44
2022/09/07 07:33:52;;;;;;;;;;;25.50;61.80;;;20.94;75.77;95657.56;5011793;28;19920;-49
2022/09/07 07:36:20;;;;;;;;;;;25.50;61.60;;;20.94;75.68;95647.53;4983045;28;19909;-46
2022/09/07 07:38:55;;;;;;;;;;;25.60;61.50;;;21.02;78.64;95645.88;4976597;28;19917;-45
2022/09/07 07:41:26;;;;;;;;;;;25.60;62.10;;;21.05;76.48;95650.63;5008548;28;19916;-47
2022/09/07 07:43:55;;;;;;;;;;;25.80;62.10;;;21.19;77.73;95650.38;5000009;28;19913;-45
2022/09/07 07:46:26;;;;;;;;;;;26.00;61.10;;;21.39;76.48;95668.56;4998098;28;20008;-56
2022/09/07 07:48:53;;;;;;;;;;;26.30;60.80;;;21.86;74.40;95664.78;4995406;28;19989;-45
2022/09/07 07:51:22;;;;;;;;;;;26.80;61.20;;;22.33;72.76;95662.53;4994277;28;19914;-47
2022/09/07 07:53:47;;;;;;;;;;;27.50;60.10;;;22.70;67.96;95673.41;4976124;28;19909;-47
2022/09/07 07:56:17;;;;;;;;;;;27.90;59.80;;;23.02;67.81;95665.47;4994641;28;19916;-44
2022/09/07 07:58:51;;;;;;;;;;;28.30;59.30;;;23.37;64.72;95663.03;4976434;28;19909;-44
2022/09/07 08:01:17;;;;;;;;;;;28.60;59.00;;;23.53;63.32;95668.50;4992772;28;19948;-46
2022/09/07 08:03:48;;;;;;;;;;;28.90;58.70;;;23.78;63.86;95669.22;4996669;28;19982;-46
2022/09/07 08:06:17;;;;;;;;;;;29.10;58.00;;;23.94;63.21;95674.72;4975638;28;19909;-44
2022/09/07 08:08:44;;;;;;;;;;;29.30;57.60;;;23.96;62.62;95670.50;4984544;28;19909;-44
2022/09/07 08:11:15;;;;;;;;;;;29.40;57.30;;;24.01;62.91;95672.19;4974234;28;20014;-45
2022/09/07 08:13:50;;;;;;;;;;;29.40;57.00;;;24.03;61.71;95669.91;4992491;28;20632;-44
2022/09/07 08:16:17;;;;;;;;;;;29.30;56.70;;;24.21;63.31;95656.75;4984781;28;20280;-46
2022/09/07 08:18:46;;;;;;;;;;;29.30;56.60;;;24.24;59.20;95656.84;4975339;28;19910;-47
2022/09/07 08:21:14;;;;;;;;;;;29.40;56.70;;;24.39;62.33;95663.44;4996273;28;19914;-46
2022/09/07 08:23:40;;;;;;;;;;;29.60;56.30;;;24.44;59.80;95663.22;4998522;28;20016;-46
2022/09/07 08:26:08;;;;;;;;;;;29.60;56.30;;;24.44;58.91;95662.41;4992501;28;19940;-47
2022/09/07 08:28:40;;;;;;;;;;;29.60;56.20;;;24.73;59.45;95646.78;5010384;28;19909;-51
2022/09/07 08:31:14;;;;;;;;;;;29.70;56.00;;;24.97;59.91;95645.75;5012458;28;19909;-44
2022/09/07 08:33:44;;;;;;;;;;;30.10;55.70;;;25.08;59.58;95646.78;5012488;28;20270;-44
2022/09/07 08:36:18;;;;;;;;;;;30.20;55.60;;;25.13;58.21;95654.69;5014448;28;19909;-46
2022/09/07 08:38:47;;;;;;;;;;;30.30;55.30;;;25.35;60.00;95647.75;5006299;28;20688;-46
2022/09/07 08:41:45;;;;;;;;;;;30.60;54.90;;;25.65;57.24;95642.53;5012339;28;19917;-44
2022/09/07 08:44:26;;;;;;;;;;;31.00;54.70;;;25.87;54.57;95649.22;5000203;28;19970;-47
2022/09/07 08:47:20;;;;;;;;;;;31.40;54.10;;;26.38;54.37;95651.66;5012168;28;19944;-44
2022/09/07 08:50:05;;;;;;;;;;;31.80;53.80;;;26.70;52.54;95654.16;4997896;28;19912;-45
2022/09/07 08:52:50;;;;;;;;;;;32.20;53.40;;;26.77;53.52;95652.34;5017231;28;20007;-44
2022/09/07 08:55:42;;;;;;;;;;;32.30;53.30;;;27.04;53.64;95641.38;5012473;28;20353;-47
2022/09/07 08:58:42;;;;;;;;;;;32.50;52.90;;;27.15;52.42;95644.31;5002748;28;20275;-48
2022/09/07 09:01:36;;;;;;;;;;;33.00;52.60;;;27.53;52.72;95651.44;4999435;28;19909;-46
2022/09/07 09:04:05;;;;;;;;;;;33.50;52.10;;;27.83;51.26;95642.44;5017427;28;19924;-44
2022/09/07 09:06:52;;;;;;;;;;;33.90;51.60;;;27.98;48.88;95643.34;5008000;28;19916;-50
2022/09/07 09:09:46;;;;;;;;;;;34.20;51.10;;;27.96;48.67;95645.69;5023419;28;19916;-46
2022/09/07 09:12:37;;;;;;;;;;;34.50;50.40;;;28.50;48.31;95641.53;5011339;28;19952;-46
2022/09/07 09:16:12;;;;;;;;;;;34.70;50.00;;;29.01;47.31;95635.25;5011466;28;19944;-45
2022/09/07 09:19:05;;;;;;;;;;;35.20;49.80;;;29.41;47.46;95620.59;4992236;28;20008;-51
2022/09/07 09:21:32;;;;;;;;;;;35.70;49.40;;;29.59;46.59;95622.63;5015726;28;20459;-45
2022/09/07 09:24:18;;;;;;;;;;;36.10;49.00;;;29.67;47.00;95630.50;4980878;28;20013;-44
2022/09/07 09:26:52;;;;;;;;;;;36.50;48.60;;;29.55;43.90;95621.81;4999051;28;19909;-45
2022/09/07 09:29:27;;;;;;;;;;;36.80;48.00;;;29.63;43.10;95623.44;4977860;28;19919;-45
2022/09/07 09:31:52;;;;;;;;;;;37.00;47.40;;;29.92;44.14;95621.56;5008851;28;19913;-44
2022/09/07 09:34:19;;;;;;;;;;;37.20;46.90;;;30.11;43.31;95623.94;4994102;28;20394;-46
2022/09/07 09:36:55;;;;;;;;;;;37.40;46.50;;;30.32;43.20;95619.69;4993243;28;19975;-51
2022/09/07 09:39:38;;;;;;;;;;;37.60;46.20;;;30.89;40.95;95612.22;4993285;28;20405;-45
2022/09/07 09:42:10;;;;;;;;;;;37.90;45.80;;;31.02;42.05;95615.34;4985634;28;19910;-50
2022/09/07 09:44:37;;;;;;;;;;;38.10;45.30;;;30.92;42.16;95609.88;5001583;28;19956;-45
2022/09/07 09:47:05;;;;;;;;;;;38.30;44.90;;;31.01;41.02;95602.78;4990356;28;20348;-45
2022/09/07 09:49:39;;;;;;;;;;;38.40;44.40;;;31.31;42.08;95604.28;5006632;28;19913;-45
2022/09/07 09:52:22;;;;;;;;;;;38.60;44.00;;;31.29;40.87;95603.88;4985612;28;19917;-45
2022/09/07 09:54:52;;;;;;;;;;;38.70;43.70;;;31.46;39.45;95592.03;4993834;28;19916;-50
2022/09/07 09:57:59;;;;;;;;;;;38.80;43.30;;;31.79;38.98;95581.66;4992813;28;19909;-44
2022/09/07 10:00:29;;;;;;;;;;;39.10;43.00;;;31.97;40.74;95576.06;4993340;28;20405;-47
2022/09/07 10:03:01;;;;;;;;;;;39.20;42.90;;;31.65;40.50;95573.47;4976071;28;19916;-47
2022/09/07 10:05:43;;;;;;;;;;;39.10;42.60;;;31.32;38.20;95568.09;5009526;28;20387;-47
2022/09/07 10:08:31;;;;;;;;;;;38.80;42.50;;;31.18;38.95;95562.63;4976998;28;19948;-46
2022/09/07 10:11:12;;;;;;;;;;;38.60;42.40;;;30.88;39.17;95558.41;4990529;28;19918;-45
2022/09/07 10:13:56;;;;;;;;;;;38.30;42.20;;;30.77;40.28;95556.84;4990919;28;19909;-56
2022/09/07 10:16:41;;;;;;;;;;;38.00;42.20;;;30.65;40.38;95552.56;4999641;28;19927;-46
2022/09/07 10:19:31;;;;;;;;;;;37.80;42.40;;;30.38;40.72;95550.22;4969835;28;19960;-50
2022/09/07 10:22:00;;;;;;;;;;;37.40;42.40;;;30.39;43.08;95540.00;4976192;28;20459;-48
2022/09/07 10:24:39;;;;;;;;;;;37.10;42.50;;;30.25;46.53;95540.81;5009489;28;20405;-48
2022/09/07 10:27:30;;;;;;;;;;;36.90;42.70;;;30.42;42.50;95531.75;5000419;28;19913;-52
2022/09/07 10:30:16;;;;;;;;;;;36.80;42.90;;;30.35;42.32;95544.72;5024372;28;20016;-46
2022/09/07 10:32:58;;;;;;;;;;;36.60;43.50;;;30.03;41.18;95528.25;4990995;28;19912;-49
2022/09/07 10:35:43;;;;;;;;;;;36.40;42.90;;;29.56;44.44;95524.63;4996622;28;19917;-50
2022/09/07 10:38:15;;;;;;;;;;;36.20;42.80;;;29.36;44.57;95521.41;5009693;28;19913;-47
2022/09/07 10:41:04;;;;;;;;;;;35.90;42.80;;;29.28;44.69;95509.66;5010743;28;19913;-47
2022/09/07 10:43:48;;;;;;;;;;;35.70;42.70;;;29.35;44.44;95512.41;5008257;28;19924;-47
2022/09/07 10:47:02;;;;;;;;;;;35.60;42.70;;;29.38;43.79;95497.91;4992966;28;19920;-48
2022/09/07 10:49:49;;;;;;;;;;;35.50;42.60;;;29.42;45.61;95495.19;5012724;28;19913;-50
2022/09/07 10:52:37;;;;;;;;;;;35.30;42.70;;;29.36;43.08;95492.03;5012848;28;19909;-56
2022/09/07 10:55:26;;;;;;;;;;;35.30;42.70;;;29.47;43.07;95484.63;5014523;28;19969;-49
2022/09/07 10:58:11;;;;;;;;;;;35.40;42.60;;;29.64;43.22;95482.31;4998741;28;19909;-46
2022/09/07 11:01:22;;;;;;;;;;;35.60;42.50;;;29.69;42.38;95474.47;5012071;28;19913;-51
2022/09/07 11:04:49;;;;;;;;;;;35.70;42.30;;;29.78;42.69;95485.06;5009184;28;19953;-47
2022/09/07 11:07:43;;;;;;;;;;;35.80;42.10;;;30.09;42.09;95477.25;5013199;28;20508;-53
2022/09/07 11:10:44;;;;;;;;;;;36.10;42.00;;;29.81;42.31;95472.53;5006173;28;20007;-47
2022/09/07 11:13:34;;;;;;;;;;;36.20;41.70;;;29.96;42.79;95474.13;4990500;28;19909;-48
2022/09/07 11:16:14;;;;;;;;;;;36.40;41.50;;;30.10;42.13;95465.84;5002776;28;20318;-49
2022/09/07 11:19:17;;;;;;;;;;;36.40;41.40;;;30.41;41.84;95469.75;5013130;28;19909;-45
2022/09/07 11:24:57;;;;;;;;;;;36.80;40.90;;;30.35;40.23;95471.34;4987835;28;20295;-49
2022/09/07 11:28:09;;;;;;;;;;;37.00;40.70;;;30.28;43.60;95473.31;4972614;28;19967;-51
2022/09/07 11:31:14;;;;;;;;;;;37.20;40.50;;;30.46;41.93;95465.81;4984710;28;19918;-52
2022/09/07 11:34:19;;;;;;;;;;;37.60;40.30;;;30.66;41.07;95466.16;4976198;28;19909;-50
2022/09/07 11:37:06;;;;;;;;;;;37.70;40.10;;;30.87;40.04;95457.88;4995723;28;19909;-49
2022/09/07 11:39:45;;;;;;;;;;;38.10;39.90;;;31.17;39.13;95451.03;5010736;28;19955;-49
2022/09/07 11:42:19;;;;;;;;;;;38.40;39.70;;;30.93;42.58;95457.44;4996286;28;20392;-47
2022/09/07 11:45:12;;;;;;;;;;;38.40;39.40;;;30.82;44.96;95449.25;5014944;28;19917;-51
2022/09/07 11:48:02;;;;;;;;;;;38.40;39.20;;;30.55;40.55;95448.91;4998676;28;19909;-50
2022/09/07 11:50:38;;;;;;;;;;;38.50;39.10;;;30.64;39.16;95455.56;5011106;28;19913;-50
2022/09/07 11:53:26;;;;;;;;;;;38.60;38.90;;;31.06;39.12;95434.63;4995828;28;20000;-47
2022/09/07 11:56:17;;;;;;;;;;;39.00;39.40;;;31.18;39.88;95429.81;5011027;28;19917;-54
2022/09/07 11:59:18;;;;;;;;;;;39.10;38.50;;;31.23;40.11;95440.41;4995284;28;19909;-50
2022/09/07 12:02:50;;;;;;;;;;;39.20;38.20;;;31.16;38.90;95432.97;4988811;28;19908;-48
2022/09/07 12:05:32;;;;;;;;;;;39.20;38.00;;;31.26;38.17;95432.13;5006174;28;19913;-49
2022/09/07 12:08:40;;;;;;;;;;;39.20;37.80;;;31.41;42.24;95432.09;5008899;28;20295;-48
2022/09/07 12:11:31;;;;;;;;;;;39.30;37.80;;;31.40;40.57;95433.25;4982961;28;19947;-51
2022/09/07 12:14:25;;;;;;;;;;;39.40;37.80;;;31.52;39.48;95419.78;5011831;28;19923;-49
2022/09/07 12:17:24;;;;;;;;;;;39.70;37.60;;;31.88;38.47;95418.75;5012977;28;20355;-53
2022/09/07 12:20:15;;;;;;;;;;;40.00;37.50;;;32.22;38.81;95407.84;4994825;28;19916;-49
2022/09/07 12:31:05;;;;;;;;;;;40.50;36.50;;;31.91;36.22;95393.19;4094427;28;22648;-61
2022/09/07 12:33:39;;;;;;;;;;;40.20;36.20;;;31.03;36.71;95385.91;4990840;28;20394;-52
2022/09/07 12:36:26;;;;;;;;;;;40.10;36.10;;;31.03;38.05;95379.63;4992929;28;19917;-51
2022/09/07 12:39:42;;;;;;;;;;;39.90;36.10;;;31.21;39.85;95379.50;4993625;28;19917;-51
2022/09/07 12:46:47;;;;;;;;;;;40.10;35.80;;;31.66;37.75;95382.34;4967917;28;20295;-52
2022/09/07 12:50:55;;;;;;;;;;;40.50;35.50;;;31.61;37.75;95378.06;5003583;28;19913;-49
2022/09/07 12:54:27;;;;;;;;;;;40.60;35.20;;;31.78;35.78;95385.41;4986622;28;19913;-52
2022/09/07 12:57:23;;;;;;;;;;;40.60;34.80;;;31.80;35.07;95371.22;4993486;28;19915;-54
2022/09/07 13:00:16;;;;;;;;;;;40.40;34.70;;;32.12;37.28;95357.13;5012265;28;19909;-54
2022/09/07 13:03:40;;;;;;;;;;;40.60;34.60;;;32.13;39.21;95353.22;5001583;28;19913;-54
2022/09/07 13:06:36;;;;;;;;;;;40.70;34.60;;;31.73;39.95;95350.03;5012181;28;20359;-53
2022/09/07 13:09:35;;;;;;;;;;;40.10;34.60;;;31.12;40.32;95355.22;5004234;28;19913;-51
2022/09/07 13:12:23;;;;;;;;;;;39.50;34.70;;;30.86;41.29;95346.31;5009120;28;27760;-53
2022/09/07 13:15:32;;;;;;;;;;;38.80;35.00;;;30.50;42.86;95342.19;5010298;28;19916;-50
2022/09/07 13:18:05;;;;;;;;;;;38.40;35.20;;;29.98;42.64;95326.22;5011570;28;19995;-49
2022/09/07 13:20:31;;;;;;;;;;;38.30;35.40;;;29.63;44.11;95325.13;4975135;28;19962;-47
2022/09/07 13:23:21;;;;;;;;;;;38.20;35.50;;;29.56;44.14;95318.84;4993506;28;19909;-47
2022/09/07 13:25:51;;;;;;;;;;;38.20;35.40;;;29.80;42.96;95318.03;5009091;28;20091;-53
2022/09/07 13:28:46;;;;;;;;;;;38.40;35.60;;;29.91;44.34;95318.00;5011338;28;20335;-52
2022/09/07 13:31:41;;;;;;;;;;;38.50;35.70;;;30.20;42.37;95311.28;5010497;28;19952;-47
2022/09/07 13:34:54;;;;;;;;;;;38.50;35.80;;;30.47;43.31;95304.50;4977025;28;19982;-49